Time;durP1;ratioP1;P1;durP2;ratioP2;P2;SDS_P1;SDS_P2;PMS_P1;PMS_P2;Temp;Humidity;BMP_temperature;BMP_pressure;BME280_temperature;BME280_humidity;BME280_pressure;Samples;Min_cycle;Max_cycle;Signal;HPM_P1;HPM_P2
2023/09/04 00:01:11;;;;;;;4.10;2.33;;;;;;;20.85;50.37;100225.66;4479025;32;33951;-73
2023/09/04 00:03:39;;;;;;;2.80;1.42;;;;;;;20.95;50.51;100233.66;4471430;32;33886;-72
2023/09/04 00:06:06;;;;;;;3.85;2.15;;;;;;;20.90;50.68;100225.16;4473481;32;34742;-73
2023/09/04 00:08:34;;;;;;;6.22;2.15;;;;;;;20.97;50.17;100228.91;4468942;32;34309;-73
2023/09/04 00:11:02;;;;;;;5.28;1.45;;;;;;;20.91;50.71;100226.87;4475743;32;33784;-73
2023/09/04 00:13:29;;;;;;;2.83;1.58;;;;;;;20.79;50.39;100222.78;4489057;31;33909;-73
2023/09/04 00:15:57;;;;;;;3.95;2.08;;;;;;;20.77;50.86;100228.41;4492937;31;34988;-73
2023/09/04 00:18:25;;;;;;;2.75;1.67;;;;;;;20.83;50.82;100232.28;4483645;31;33344;-73
2023/09/04 00:20:53;;;;;;;3.45;1.20;;;;;;;20.90;50.64;100225.16;4497661;31;34965;-73
2023/09/04 00:23:21;;;;;;;3.58;2.12;;;;;;;20.83;50.73;100241.28;4496253;31;35302;-73
2023/09/04 00:25:48;;;;;;;3.40;1.75;;;;;;;20.87;50.90;100241.84;4495547;31;33455;-73
2023/09/04 00:28:18;;;;;;;4.78;2.10;;;;;;;20.77;50.92;100236.56;4494795;31;34466;-71
2023/09/04 00:30:46;;;;;;;3.12;1.77;;;;;;;20.83;50.72;100235.00;4494126;31;34742;-73
2023/09/04 00:33:14;;;;;;;2.92;1.52;;;;;;;20.76;50.83;100226.66;4496209;31;33999;-72
2023/09/04 00:35:41;;;;;;;3.10;1.87;;;;;;;20.78;51.02;100230.09;4495396;31;34274;-72
2023/09/04 00:38:09;;;;;;;1.77;1.25;;;;;;;20.58;51.83;100245.88;4496333;31;33055;-72
2023/09/04 00:40:37;;;;;;;4.07;1.75;;;;;;;20.64;51.64;100250.66;4495738;31;33893;-72
2023/09/04 00:43:05;;;;;;;3.25;1.95;;;;;;;20.70;51.48;100244.50;4497277;31;33738;-72
2023/09/04 00:45:34;;;;;;;2.47;1.65;;;;;;;20.72;51.71;100243.50;4487281;31;33970;-72
2023/09/04 00:48:03;;;;;;;3.53;2.00;;;;;;;20.68;51.49;100243.84;4498238;31;33305;-72
2023/09/04 00:50:31;;;;;;;2.40;1.40;;;;;;;20.62;51.67;100236.34;4484964;31;35084;-72
2023/09/04 00:53:02;;;;;;;4.45;2.22;;;;;;;20.60;51.53;100238.38;4496690;31;34893;-72
2023/09/04 00:55:30;;;;;;;3.67;1.65;;;;;;;20.54;51.56;100232.75;4497803;31;34102;-72
2023/09/04 00:57:59;;;;;;;3.83;2.03;;;;;;;20.37;51.86;100229.12;4489870;31;34888;-72
2023/09/04 01:00:27;;;;;;;3.50;2.08;;;;;;;20.21;52.29;100228.06;4499490;31;33246;-72
2023/09/04 01:02:56;;;;;;;4.47;2.15;;;;;;;20.23;52.12;100225.19;4487875;31;34572;-72
2023/09/04 01:05:27;;;;;;;4.60;1.80;;;;;;;20.14;52.30;100224.31;4486817;31;33974;-72
2023/09/04 01:07:55;;;;;;;3.42;1.87;;;;;;;20.25;52.07;100225.88;4487174;31;33345;-72
2023/09/04 01:10:23;;;;;;;3.40;1.80;;;;;;;20.16;52.15;100221.41;4498246;31;33759;-72
2023/09/04 01:12:54;;;;;;;3.30;1.95;;;;;;;20.21;52.06;100214.47;4498131;31;33428;-72
2023/09/04 01:15:24;;;;;;;3.95;2.37;;;;;;;20.13;52.31;100206.31;4498810;31;33869;-72
2023/09/04 01:17:53;;;;;;;0.77;0.62;;;;;;;20.04;52.57;100204.59;4497675;31;33137;-72
2023/09/04 01:20:24;;;;;;;4.65;1.75;;;;;;;20.11;52.40;100202.06;4495058;31;34918;-72
2023/09/04 01:22:52;;;;;;;3.12;2.00;;;;;;;20.18;52.48;100209.38;4499138;31;33722;-71
2023/09/04 01:25:20;;;;;;;2.75;1.65;;;;;;;20.25;52.62;100218.56;4497743;31;34376;-72
2023/09/04 01:28:01;;;;;;;4.22;2.12;;;;;;;20.28;52.67;100217.38;4494890;31;34276;-72
2023/09/04 01:30:44;;;;;;;6.07;2.72;;;;;;;20.28;52.60;100225.53;4494678;31;33819;-71
2023/09/04 01:33:13;;;;;;;4.85;2.30;;;;;;;20.02;53.20;100228.34;4492973;31;34979;-71
2023/09/04 01:35:42;;;;;;;3.85;2.25;;;;;;;20.27;52.48;100223.00;4494613;31;33761;-72
2023/09/04 01:38:10;;;;;;;9.05;2.45;;;;;;;20.32;52.52;100234.22;4483403;31;34411;-74
2023/09/04 01:40:38;;;;;;;4.60;2.20;;;;;;;20.31;52.44;100232.50;4480161;31;33796;-73
2023/09/04 01:43:05;;;;;;;3.62;2.20;;;;;;;20.29;52.48;100226.38;4479232;31;34131;-73
2023/09/04 01:45:33;;;;;;;4.20;2.12;;;;;;;20.28;52.58;100235.56;4473169;31;33974;-73
2023/09/04 01:48:01;;;;;;;4.97;2.55;;;;;;;20.20;52.82;100231.81;4467707;32;33494;-72
2023/09/04 01:50:28;;;;;;;4.00;1.90;;;;;;;20.21;52.77;100236.22;4481798;31;34449;-71
2023/09/04 01:52:56;;;;;;;6.15;2.40;;;;;;;20.12;52.94;100231.78;4478394;31;33743;-70
2023/09/04 01:55:24;;;;;;;3.22;2.05;;;;;;;20.09;52.93;100242.97;4481193;31;33868;-71
2023/09/04 01:57:51;;;;;;;3.75;2.40;;;;;;;20.07;52.87;100245.03;4480363;31;31700;-71
2023/09/04 02:00:19;;;;;;;4.07;2.03;;;;;;;19.92;53.26;100246.66;4470543;32;34254;-71
2023/09/04 02:02:46;;;;;;;3.47;2.08;;;;;;;19.91;53.21;100243.09;4475415;32;34341;-73
2023/09/04 02:05:14;;;;;;;5.18;2.37;;;;;;;19.88;53.32;100242.56;4471937;32;33535;-72
2023/09/04 02:07:42;;;;;;;4.28;1.85;;;;;;;19.80;53.56;100235.19;4481012;32;34126;-72
2023/09/04 02:10:10;;;;;;;2.67;1.60;;;;;;;19.72;53.73;100230.59;4480062;32;33502;-72
2023/09/04 02:12:37;;;;;;;2.92;1.62;;;;;;;19.41;54.75;100240.22;4491708;31;34119;-71
2023/09/04 02:15:06;;;;;;;3.65;2.12;;;;;;;19.69;53.97;100243.66;4498400;31;34905;-72
2023/09/04 02:17:34;;;;;;;5.50;2.17;;;;;;;19.65;54.00;100236.84;4494199;31;34297;-72
2023/09/04 02:20:04;;;;;;;6.07;2.35;;;;;;;19.68;54.25;100245.53;4498792;31;33588;-73
2023/09/04 02:22:41;;;;;;;3.37;2.12;;;;;;;19.51;54.51;100236.38;4499657;31;35388;-72
2023/09/04 02:25:08;;;;;;;4.10;2.40;;;;;;;19.51;54.51;100240.97;4498893;31;33473;-73
2023/09/04 02:27:36;;;;;;;2.47;1.67;;;;;;;19.57;54.51;100236.75;4493170;31;33642;-72
2023/09/04 02:30:07;;;;;;;4.82;2.42;;;;;;;19.63;54.39;100239.69;4492953;31;33683;-72
2023/09/04 02:32:35;;;;;;;4.25;2.10;;;;;;;19.63;54.49;100247.81;4497115;31;34125;-72
2023/09/04 02:35:03;;;;;;;3.62;2.10;;;;;;;19.60;54.75;100250.84;4491692;31;35323;-72
2023/09/04 02:37:30;;;;;;;3.78;2.00;;;;;;;19.64;54.68;100254.97;4496603;31;34449;-72
2023/09/04 02:39:58;;;;;;;4.12;1.85;;;;;;;19.55;54.87;100245.06;4497628;31;33831;-77
2023/09/04 02:42:29;;;;;;;3.65;2.05;;;;;;;19.70;54.64;100250.78;4498416;31;35271;-73
2023/09/04 02:44:56;;;;;;;4.18;2.37;;;;;;;19.82;54.56;100248.62;4496359;31;34813;-74
2023/09/04 02:47:24;;;;;;;4.55;2.20;;;;;;;19.91;54.45;100245.81;4495958;31;32958;-75
2023/09/04 02:49:52;;;;;;;4.62;2.50;;;;;;;20.04;53.96;100255.38;4498348;31;34707;-72
2023/09/04 02:52:19;;;;;;;4.07;2.58;;;;;;;20.08;53.77;100260.28;4497429;31;34259;-73
2023/09/04 02:54:47;;;;;;;5.35;2.65;;;;;;;20.09;53.98;100263.84;4495803;31;33981;-73
2023/09/04 02:57:15;;;;;;;2.50;1.42;;;;;;;20.23;53.67;100268.69;4494477;31;33091;-73
2023/09/04 02:59:42;;;;;;;3.85;2.15;;;;;;;20.20;53.44;100267.16;4498868;31;33626;-73
2023/09/04 03:02:10;;;;;;;5.30;3.00;;;;;;;20.19;53.19;100257.31;4707597;26;33793;-71
2023/09/04 03:04:38;;;;;;;3.55;2.17;;;;;;;20.20;52.95;100252.72;4460421;32;33774;-71
2023/09/04 03:07:06;;;;;;;3.80;2.03;;;;;;;19.94;53.66;100248.19;4467805;32;34503;-70
2023/09/04 03:09:34;;;;;;;3.67;2.35;;;;;;;20.02;53.37;100260.94;4465469;32;34897;-70
2023/09/04 03:12:02;;;;;;;28.73;3.15;;;;;;;20.06;53.37;100256.03;4466251;32;35078;-70
2023/09/04 03:14:30;;;;;;;3.05;2.15;;;;;;;19.83;54.04;100255.75;4464521;32;33966;-70
2023/09/04 03:16:58;;;;;;;2.58;1.75;;;;;;;19.98;53.56;100251.44;4467900;32;33209;-71
2023/09/04 03:19:25;;;;;;;5.10;3.00;;;;;;;19.99;53.39;100256.69;4467894;32;33745;-71
2023/09/04 03:21:53;;;;;;;3.30;1.85;;;;;;;20.00;53.59;100257.56;4468584;32;33963;-71
2023/09/04 03:24:23;;;;;;;3.00;1.95;;;;;;;20.01;53.67;100264.69;4466376;32;34167;-71
2023/09/04 03:26:52;;;;;;;4.50;2.90;;;;;;;19.65;54.44;100269.44;4468311;32;33575;-70
2023/09/04 03:29:19;;;;;;;3.80;1.75;;;;;;;19.50;55.16;100261.81;4466721;32;34000;-71
2023/09/04 03:31:48;;;;;;;3.42;2.22;;;;;;;19.48;55.17;100266.56;4464441;32;33838;-71
2023/09/04 03:34:15;;;;;;;2.47;1.77;;;;;;;19.70;54.56;100270.63;4465337;32;34682;-71
2023/09/04 03:36:43;;;;;;;4.93;1.85;;;;;;;19.68;54.69;100269.12;4466601;32;33085;-71
2023/09/04 03:39:11;;;;;;;3.60;2.25;;;;;;;19.78;54.42;100265.25;4464921;32;34679;-71
2023/09/04 03:41:38;;;;;;;3.75;2.33;;;;;;;19.84;54.51;100262.88;4467265;32;35194;-71
2023/09/04 03:44:06;;;;;;;3.85;2.47;;;;;;;19.89;54.17;100261.41;4466405;32;33973;-71
2023/09/04 03:46:34;;;;;;;6.37;2.85;;;;;;;19.85;54.26;100256.47;4465767;32;34181;-71
2023/09/04 03:49:02;;;;;;;5.37;2.33;;;;;;;19.84;54.39;100257.47;4467414;32;34721;-71
2023/09/04 03:51:29;;;;;;;5.25;3.00;;;;;;;19.81;54.46;100263.22;4464895;32;33963;-73
2023/09/04 03:54:02;;;;;;;3.45;1.75;;;;;;;19.74;54.66;100261.16;4463924;32;33846;-73
2023/09/04 03:56:30;;;;;;;3.75;2.45;;;;;;;19.77;54.75;100266.28;4453552;32;33452;-73
2023/09/04 03:58:58;;;;;;;5.18;2.62;;;;;;;19.79;54.58;100271.53;4468634;32;34597;-74
2023/09/04 04:01:27;;;;;;;4.28;2.00;;;;;;;19.86;54.50;100271.75;4458263;32;33851;-72
2023/09/04 04:03:55;;;;;;;2.08;1.42;;;;;;;19.88;54.29;100267.84;4464980;32;35013;-73
2023/09/04 04:06:25;;;;;;;3.08;1.95;;;;;;;19.92;54.04;100271.09;4466199;32;33016;-72
2023/09/04 04:08:55;;;;;;;6.87;3.37;;;;;;;19.89;54.15;100271.41;4466144;32;34463;-72
2023/09/04 04:11:23;;;;;;;3.00;2.00;;;;;;;19.88;54.38;100272.44;4461657;32;35918;-72
2023/09/04 04:13:51;;;;;;;4.45;2.47;;;;;;;19.90;54.18;100270.41;4466926;32;34118;-72
2023/09/04 04:16:18;;;;;;;6.37;2.00;;;;;;;19.91;54.12;100278.41;4465944;32;34535;-72
2023/09/04 04:18:46;;;;;;;3.70;2.00;;;;;;;19.90;54.01;100270.41;4455680;32;33609;-73
2023/09/04 04:21:14;;;;;;;7.53;2.15;;;;;;;19.92;54.02;100276.53;4467460;32;34244;-72
2023/09/04 04:23:42;;;;;;;4.72;2.47;;;;;;;19.91;54.08;100280.28;4469678;32;34316;-73
2023/09/04 04:26:13;;;;;;;4.93;2.12;;;;;;;19.88;54.28;100277.87;4467701;32;34151;-73
2023/09/04 04:28:41;;;;;;;2.85;1.73;;;;;;;19.80;54.80;100283.25;4470002;32;33631;-72
2023/09/04 04:31:08;;;;;;;4.22;2.60;;;;;;;19.86;54.50;100288.03;4466932;32;35239;-72
2023/09/04 04:33:37;;;;;;;5.28;2.75;;;;;;;19.90;54.35;100283.97;4469013;32;33910;-72
2023/09/04 04:36:04;;;;;;;2.95;1.75;;;;;;;19.52;55.34;100292.41;4466696;32;33739;-72
2023/09/04 04:38:32;;;;;;;15.85;2.15;;;;;;;19.84;54.79;100285.50;4469453;32;33700;-73
2023/09/04 04:41:00;;;;;;;2.83;1.67;;;;;;;19.92;54.60;100292.81;4461140;32;34124;-72
2023/09/04 04:43:28;;;;;;;3.67;2.25;;;;;;;19.99;54.71;100302.03;4457108;32;33709;-72
2023/09/04 04:45:56;;;;;;;8.45;3.45;;;;;;;19.93;54.66;100305.37;4467620;32;33156;-72
2023/09/04 04:48:29;;;;;;;3.10;1.98;;;;;;;19.63;56.08;100307.56;4466727;32;34483;-72
2023/09/04 04:50:56;;;;;;;5.47;2.70;;;;;;;19.66;56.24;100307.28;4468531;32;35381;-72
2023/09/04 04:53:25;;;;;;;4.72;2.72;;;;;;;20.11;54.79;100308.03;4467342;32;34559;-72
2023/09/04 04:55:52;;;;;;;5.78;2.60;;;;;;;20.09;54.29;100300.03;4467535;32;34353;-74
2023/09/04 04:58:20;;;;;;;3.97;2.55;;;;;;;20.13;54.51;100308.75;4466948;32;33736;-73
2023/09/04 05:00:48;;;;;;;4.15;1.90;;;;;;;20.22;54.52;100322.19;4464524;32;33517;-73
2023/09/04 05:03:16;;;;;;;4.53;2.40;;;;;;;20.28;54.56;100317.97;4464528;32;34259;-71
2023/09/04 05:05:45;;;;;;;5.50;2.60;;;;;;;20.32;54.05;100321.19;4466540;32;33478;-71
2023/09/04 05:08:13;;;;;;;9.07;3.22;;;;;;;20.33;54.08;100321.03;4469876;32;33379;-71
2023/09/04 05:10:41;;;;;;;3.67;2.15;;;;;;;20.53;53.85;100326.25;4465795;32;33854;-71
2023/09/04 05:13:09;;;;;;;2.62;1.65;;;;;;;21.00;52.83;100321.09;4462180;32;34941;-74
2023/09/04 05:15:37;;;;;;;5.87;2.60;;;;;;;21.69;50.97;100324.31;4463567;32;33237;-76
2023/09/04 05:18:05;;;;;;;4.43;2.47;;;;;;;22.06;49.46;100328.34;4467997;32;33719;-75
2023/09/04 05:20:37;;;;;;;4.12;2.05;;;;;;;22.04;49.41;100320.34;4466483;32;33923;-71
2023/09/04 05:23:05;;;;;;;4.25;2.62;;;;;;;22.14;49.81;100319.28;4468612;32;33954;-71
2023/09/04 05:25:34;;;;;;;6.57;2.95;;;;;;;22.06;50.09;100329.19;4468432;32;33882;-72
2023/09/04 05:28:08;;;;;;;3.30;2.10;;;;;;;22.14;49.75;100330.19;4465888;32;33581;-72
2023/09/04 05:30:40;;;;;;;3.50;2.20;;;;;;;22.02;49.75;100325.13;4466747;32;35183;-72
2023/09/04 05:33:20;;;;;;;5.22;2.55;;;;;;;22.18;49.32;100331.56;4465981;32;33004;-70
2023/09/04 05:35:58;;;;;;;4.70;2.58;;;;;;;22.25;48.81;100329.84;4466166;32;33118;-71
2023/09/04 05:38:40;;;;;;;3.35;2.28;;;;;;;22.21;48.96;100331.22;4462130;32;33504;-71
2023/09/04 05:41:13;;;;;;;4.50;2.50;;;;;;;22.11;49.21;100328.66;4464565;32;33681;-73
2023/09/04 05:43:50;;;;;;;3.65;2.22;;;;;;;22.23;48.83;100330.00;4467830;32;34186;-69
2023/09/04 05:46:22;;;;;;;3.25;2.00;;;;;;;22.46;48.17;100334.69;4466973;32;33430;-70
2023/09/04 05:49:01;;;;;;;4.90;2.80;;;;;;;22.41;48.60;100339.84;4454501;32;33221;-70
2023/09/04 05:51:44;;;;;;;5.20;2.28;;;;;;;22.50;48.51;100336.91;4463439;32;33849;-69
2023/09/04 05:54:25;;;;;;;5.80;2.85;;;;;;;23.87;45.19;100340.69;4464355;32;33930;-73
2023/09/04 05:57:01;;;;;;;5.90;2.17;;;;;;;25.55;42.15;100337.06;4462366;32;33416;-74
2023/09/04 05:59:28;;;;;;;5.70;3.00;;;;;;;25.88;41.56;100333.78;4465935;32;33716;-74
2023/09/04 06:01:56;;;;;;;5.37;3.20;;;;;;;25.36;42.80;100333.13;4460490;32;34136;-73
2023/09/04 06:04:24;;;;;;;3.78;2.10;;;;;;;24.47;44.85;100332.53;4469118;32;33633;-73
2023/09/04 06:06:52;;;;;;;4.35;2.42;;;;;;;24.23;45.09;100336.38;4466343;32;33203;-74
2023/09/04 06:09:24;;;;;;;5.25;2.42;;;;;;;23.65;46.39;100336.94;4467331;32;33680;-74
2023/09/04 06:12:09;;;;;;;3.30;2.17;;;;;;;23.53;46.94;100334.84;4458906;32;33649;-73
2023/09/04 06:14:49;;;;;;;6.12;2.92;;;;;;;23.18;48.04;100340.78;4462996;32;34212;-73
2023/09/04 06:17:30;;;;;;;4.37;2.53;;;;;;;23.20;47.26;100340.59;4461199;32;33331;-73
2023/09/04 06:20:12;;;;;;;3.60;2.40;;;;;;;22.69;48.09;100332.84;4441286;32;33582;-74
2023/09/04 06:22:40;;;;;;;4.40;2.42;;;;;;;22.63;48.39;100338.19;4446094;32;34134;-74
2023/09/04 06:25:08;;;;;;;4.07;2.42;;;;;;;22.74;48.14;100340.53;4446853;32;34802;-73
2023/09/04 06:27:36;;;;;;;4.68;2.45;;;;;;;22.74;48.46;100329.63;4443447;32;33459;-74
2023/09/04 06:30:06;;;;;;;4.68;2.75;;;;;;;22.49;49.32;100337.06;4446692;32;34769;-74
2023/09/04 06:32:33;;;;;;;4.15;2.28;;;;;;;22.52;49.26;100334.00;4445358;32;33711;-73
2023/09/04 06:35:01;;;;;;;4.72;2.45;;;;;;;22.50;49.01;100336.03;4447754;32;33631;-73
2023/09/04 06:37:29;;;;;;;5.78;2.72;;;;;;;22.31;49.07;100338.19;4446593;32;34175;-73
2023/09/04 06:39:56;;;;;;;4.45;2.53;;;;;;;22.44;49.68;100339.47;4446688;32;33798;-73
2023/09/04 06:42:24;;;;;;;42.53;13.73;;;;;;;22.66;48.64;100337.84;4441216;32;33633;-73
2023/09/04 06:44:52;;;;;;;8.10;3.28;;;;;;;22.48;50.54;100349.84;4443842;32;34923;-73
2023/09/04 06:47:19;;;;;;;6.45;3.55;;;;;;;22.71;49.86;100349.06;4442083;32;34342;-73
2023/09/04 06:49:47;;;;;;;5.30;2.20;;;;;;;22.69;49.93;100362.03;4446101;32;33335;-73
2023/09/04 06:52:15;;;;;;;17.37;5.53;;;;;;;22.89;49.03;100348.78;4463762;32;34698;-73
2023/09/04 06:54:42;;;;;;;9.52;3.47;;;;;;;22.78;49.68;100356.34;4464162;32;33914;-73
2023/09/04 06:57:10;;;;;;;8.23;2.97;;;;;;;22.87;48.76;100351.69;4467231;32;34598;-73
2023/09/04 06:59:38;;;;;;;5.47;2.92;;;;;;;23.23;47.84;100356.59;4465740;32;33960;-73
2023/09/04 07:02:05;;;;;;;7.68;2.83;;;;;;;22.84;49.40;100362.13;4459626;32;34476;-73
2023/09/04 07:04:33;;;;;;;12.13;3.33;;;;;;;22.99;48.57;100355.75;4466949;32;34459;-73
2023/09/04 07:07:01;;;;;;;5.32;2.83;;;;;;;23.27;47.85;100355.22;4463573;32;33183;-73
2023/09/04 07:09:29;;;;;;;4.25;2.10;;;;;;;22.82;49.30;100358.72;4465676;32;34996;-73
2023/09/04 07:11:56;;;;;;;3.45;2.12;;;;;;;23.47;48.08;100356.44;4461961;32;34057;-73
2023/09/04 07:14:25;;;;;;;3.22;1.87;;;;;;;23.58;47.26;100365.22;4463155;32;33583;-73
2023/09/04 07:16:52;;;;;;;5.07;2.33;;;;;;;23.37;48.16;100366.75;4466598;32;34123;-73
2023/09/04 07:19:35;;;;;;;4.20;2.33;;;;;;;23.48;47.64;100373.66;4466635;32;35196;-74
2023/09/04 07:22:03;;;;;;;4.20;2.65;;;;;;;23.68;47.61;100374.88;4462574;32;34351;-73
2023/09/04 07:24:31;;;;;;;5.72;2.53;;;;;;;23.62;47.88;100369.28;4458408;32;33906;-73
2023/09/04 07:26:58;;;;;;;8.65;2.95;;;;;;;23.07;50.07;100382.16;4466543;32;33030;-73
2023/09/04 07:29:26;;;;;;;3.67;2.15;;;;;;;23.55;47.38;100374.62;4465907;32;33837;-73
2023/09/04 07:31:55;;;;;;;5.45;2.47;;;;;;;23.60;47.04;100383.13;4465347;32;35443;-74
2023/09/04 07:34:23;;;;;;;14.90;2.92;;;;;;;23.64;47.45;100383.59;4454669;32;34753;-73
2023/09/04 07:36:52;;;;;;;3.90;2.17;;;;;;;23.70;47.16;100371.97;4458624;32;33485;-73
2023/09/04 07:39:19;;;;;;;5.65;2.75;;;;;;;23.25;47.19;100379.13;4463982;32;34706;-73
2023/09/04 07:41:47;;;;;;;5.03;2.37;;;;;;;23.66;46.50;100374.19;4464443;32;34284;-73
2023/09/04 07:44:15;;;;;;;8.93;3.85;;;;;;;23.68;46.52;100369.41;4463448;32;34533;-73
2023/09/04 07:46:42;;;;;;;8.07;2.87;;;;;;;23.38;47.00;100367.59;4465617;32;33138;-73
2023/09/04 07:49:10;;;;;;;9.45;4.20;;;;;;;23.21;47.68;100375.91;4461508;32;33453;-73
2023/09/04 07:51:39;;;;;;;12.73;6.12;;;;;;;23.45;47.64;100374.88;4463369;32;34990;-74
2023/09/04 07:54:06;;;;;;;7.32;3.75;;;;;;;23.79;46.90;100370.88;4467597;32;34548;-74
2023/09/04 07:56:34;;;;;;;5.75;2.33;;;;;;;23.98;46.42;100391.34;4464539;32;33028;-73
2023/09/04 07:59:05;;;;;;;3.47;1.87;;;;;;;24.13;46.13;100383.16;4460448;32;34874;-74
2023/09/04 08:01:33;;;;;;;4.37;2.30;;;;;;;24.17;44.84;100376.25;4465416;32;33968;-73
2023/09/04 08:04:04;;;;;;;7.20;2.47;;;;;;;24.21;45.47;100369.41;4468454;32;33575;-73
2023/09/04 08:06:32;;;;;;;7.40;3.37;;;;;;;23.81;44.60;100365.19;4467784;32;33143;-73
2023/09/04 08:08:59;;;;;;;11.38;4.30;;;;;;;23.95;45.35;100372.59;4464656;32;33510;-73
2023/09/04 08:11:27;;;;;;;5.35;2.60;;;;;;;24.32;44.06;100368.91;4465975;32;35418;-73
2023/09/04 08:13:55;;;;;;;4.32;1.95;;;;;;;24.35;44.12;100371.28;4463415;32;34929;-72
2023/09/04 08:16:23;;;;;;;13.45;6.53;;;;;;;24.08;40.15;100380.16;4461313;32;33130;-73
2023/09/04 08:18:51;;;;;;;5.18;2.62;;;;;;;24.41;41.56;100383.37;4466370;32;33948;-73
2023/09/04 08:21:18;;;;;;;6.28;2.42;;;;;;;24.60;42.13;100380.06;4467291;32;33935;-73
2023/09/04 08:23:46;;;;;;;3.37;1.60;;;;;;;24.63;42.76;100379.69;4466754;32;35147;-73
2023/09/04 08:26:15;;;;;;;3.97;1.83;;;;;;;24.33;43.49;100386.16;4465480;32;33525;-73
2023/09/04 08:28:42;;;;;;;4.50;2.33;;;;;;;24.68;42.88;100376.37;4461256;32;33636;-73
2023/09/04 08:31:12;;;;;;;3.35;1.75;;;;;;;24.90;40.87;100377.28;4456178;32;34498;-73
2023/09/04 08:33:40;;;;;;;3.10;1.80;;;;;;;24.71;41.15;100381.47;4456029;32;34382;-74
2023/09/04 08:36:07;;;;;;;3.20;1.80;;;;;;;24.06;39.55;100372.13;4464630;32;33287;-74
2023/09/04 08:38:35;;;;;;;4.97;1.42;;;;;;;24.55;37.53;100384.41;4465280;32;33827;-73
2023/09/04 08:41:08;;;;;;;2.55;1.30;;;;;;;24.00;36.87;100372.87;4458369;32;33843;-73
2023/09/04 08:43:37;;;;;;;2.42;1.48;;;;;;;23.62;37.19;100369.28;4461234;32;33406;-74
2023/09/04 08:46:06;;;;;;;5.90;1.67;;;;;;;23.47;37.84;100372.81;4460740;32;34464;-72
2023/09/04 08:48:39;;;;;;;4.25;1.67;;;;;;;23.89;36.43;100378.81;4459755;32;33508;-71
2023/09/04 08:51:08;;;;;;;3.08;1.70;;;;;;;23.85;36.95;100375.59;4458448;32;33742;-73
2023/09/04 08:53:36;;;;;;;2.45;1.40;;;;;;;24.34;36.64;100379.69;4462627;32;34616;-72
2023/09/04 08:56:04;;;;;;;3.20;1.80;;;;;;;24.19;36.63;100379.66;4462432;32;33134;-73
2023/09/04 08:58:32;;;;;;;2.62;1.52;;;;;;;24.37;35.13;100368.38;4464298;32;34946;-73
2023/09/04 09:01:01;;;;;;;3.08;1.90;;;;;;;24.78;34.57;100373.31;4459405;32;34092;-72
2023/09/04 09:03:28;;;;;;;2.90;1.50;;;;;;;24.08;35.68;100366.47;4457128;32;34547;-72
2023/09/04 09:05:57;;;;;;;3.08;1.75;;;;;;;24.20;35.71;100373.16;4461435;32;34173;-72
2023/09/04 09:08:25;;;;;;;7.20;2.12;;;;;;;24.61;33.85;100367.22;4459210;32;33457;-71
2023/09/04 09:10:53;;;;;;;7.10;1.67;;;;;;;23.96;36.12;100373.44;4432388;32;33772;-71
2023/09/04 09:13:21;;;;;;;2.87;1.67;;;;;;;23.98;35.17;100369.50;4406865;32;32199;-71
2023/09/04 09:15:49;;;;;;;6.07;1.52;;;;;;;23.75;35.66;100371.41;4420960;32;34196;-71
2023/09/04 09:18:37;;;;;;;3.97;1.75;;;;;;;23.76;36.14;100373.13;4427147;32;34656;-72
2023/09/04 09:21:25;;;;;;;5.07;1.73;;;;;;;23.74;35.85;100364.25;4430913;32;33416;-71
2023/09/04 09:24:16;;;;;;;4.00;2.10;;;;;;;24.33;35.13;100359.69;4427597;32;34527;-71
2023/09/04 09:26:49;;;;;;;3.58;1.60;;;;;;;24.48;35.33;100370.62;4427109;32;34077;-71
2023/09/04 09:29:19;;;;;;;7.53;1.87;;;;;;;24.15;34.85;100364.69;4434582;32;33692;-76
2023/09/04 09:31:47;;;;;;;3.75;1.65;;;;;;;24.26;35.21;100363.34;4430041;32;33115;-72
2023/09/04 09:34:16;;;;;;;3.30;1.58;;;;;;;24.16;34.98;100369.09;4425762;32;34009;-74
2023/09/04 09:36:44;;;;;;;2.87;1.30;;;;;;;24.44;34.23;100368.50;4432368;32;33251;-73
2023/09/04 09:39:14;;;;;;;4.55;1.87;;;;;;;24.08;33.34;100367.31;4434711;32;33872;-73
2023/09/04 09:41:42;;;;;;;2.25;1.23;;;;;;;24.29;32.76;100357.50;4444797;32;33674;-72
2023/09/04 09:44:09;;;;;;;3.97;1.65;;;;;;;24.51;33.27;100363.94;4462786;32;33908;-73
2023/09/04 09:46:37;;;;;;;2.75;1.30;;;;;;;24.38;33.49;100367.31;4468595;32;33258;-73
2023/09/04 09:49:08;;;;;;;7.07;1.90;;;;;;;24.71;33.15;100377.88;4464703;32;33738;-73
2023/09/04 09:51:37;;;;;;;5.20;1.98;;;;;;;25.12;32.70;100366.34;4464527;32;34085;-73
2023/09/04 09:54:08;;;;;;;3.30;1.58;;;;;;;25.29;32.10;100367.81;4456145;32;34547;-73
2023/09/04 09:56:38;;;;;;;7.87;1.83;;;;;;;25.02;32.98;100367.50;4463885;32;34928;-73
2023/09/04 09:59:08;;;;;;;2.72;1.50;;;;;;;25.05;32.59;100371.75;4463735;32;34906;-72
2023/09/04 10:01:36;;;;;;;4.60;2.00;;;;;;;25.44;30.98;100354.91;4456066;32;34874;-71
2023/09/04 10:04:06;;;;;;;4.32;1.95;;;;;;;25.25;32.59;100356.41;4461539;32;34892;-72
2023/09/04 10:06:36;;;;;;;3.37;1.52;;;;;;;24.80;33.33;100365.78;4466556;32;34626;-73
2023/09/04 10:09:06;;;;;;;6.07;2.03;;;;;;;25.48;32.20;100360.84;4465635;32;32007;-73
2023/09/04 10:11:39;;;;;;;4.57;2.40;;;;;;;25.02;33.41;100355.72;4460331;32;33893;-72
2023/09/04 10:14:13;;;;;;;3.75;1.85;;;;;;;25.07;33.00;100353.22;4463521;32;33615;-71
2023/09/04 10:16:43;;;;;;;4.40;1.85;;;;;;;24.93;33.62;100354.12;4446614;32;34439;-74
2023/09/04 10:19:12;;;;;;;4.78;1.70;;;;;;;25.67;32.87;100343.72;4430323;32;34630;-74
2023/09/04 10:21:43;;;;;;;4.35;1.83;;;;;;;25.70;31.38;100347.94;4445488;32;34240;-72
2023/09/04 10:24:13;;;;;;;6.78;1.87;;;;;;;25.24;32.88;100351.97;4413721;32;34504;-73
2023/09/04 10:27:00;;;;;;;3.72;1.70;;;;;;;25.29;32.53;100352.22;4417886;32;32147;-72
2023/09/04 10:29:29;;;;;;;2.05;0.95;;;;;;;25.48;32.55;100355.34;4395080;32;33267;-72
2023/09/04 10:31:57;;;;;;;3.62;1.95;;;;;;;25.70;31.65;100357.03;4397853;32;35601;-73
2023/09/04 10:34:25;;;;;;;2.92;1.60;;;;;;;25.72;32.36;100354.94;4401491;32;34836;-74
2023/09/04 10:36:56;;;;;;;7.32;2.08;;;;;;;25.58;32.28;100355.00;4402751;32;33429;-73
2023/09/04 10:39:24;;;;;;;3.95;1.77;;;;;;;25.38;32.95;100352.94;4402933;32;33562;-71
2023/09/04 10:41:53;;;;;;;2.95;1.58;;;;;;;26.20;31.89;100341.38;4390170;32;33669;-74
2023/09/04 10:44:45;;;;;;;3.90;1.70;;;;;;;25.60;31.93;100336.50;4399438;32;33176;-73
2023/09/04 10:47:14;;;;;;;2.80;1.50;;;;;;;26.33;31.98;100345.25;4374203;32;32662;-74
2023/09/04 10:49:43;;;;;;;3.03;1.62;;;;;;;26.50;29.78;100343.88;4373213;32;33770;-74
2023/09/04 10:52:11;;;;;;;6.32;1.65;;;;;;;26.60;30.59;100338.84;4371239;32;34122;-74
2023/09/04 10:54:40;;;;;;;2.62;1.52;;;;;;;25.70;31.72;100343.31;4386537;32;34448;-73
2023/09/04 10:57:11;;;;;;;3.78;1.50;;;;;;;26.27;31.29;100344.16;4405275;32;34325;-75
2023/09/04 10:59:57;;;;;;;8.13;2.05;;;;;;;25.73;30.61;100344.81;4415526;32;33925;-71
2023/09/04 11:02:33;;;;;;;4.53;1.60;;;;;;;26.75;30.37;100343.34;4442181;32;33368;-73
2023/09/04 11:05:02;;;;;;;3.37;1.85;;;;;;;27.00;29.52;100330.75;4436175;32;33411;-74
2023/09/04 11:07:32;;;;;;;4.22;1.58;;;;;;;26.52;31.32;100338.16;4434185;32;33281;-72
2023/09/04 11:10:28;;;;;;;3.33;1.75;;;;;;;26.27;30.53;100337.84;4432793;32;34280;-73
2023/09/04 11:12:56;;;;;;;3.78;1.62;;;;;;;26.60;30.07;100327.03;4433693;32;32939;-74
2023/09/04 11:15:26;;;;;;;2.85;1.52;;;;;;;26.11;30.64;100328.87;4432321;32;34163;-74
2023/09/04 11:17:53;;;;;;;3.37;1.62;;;;;;;26.14;31.03;100319.41;4450481;32;32773;-73
2023/09/04 11:20:26;;;;;;;3.65;1.80;;;;;;;26.43;31.04;100319.13;4468305;32;33352;-74
2023/09/04 11:22:56;;;;;;;2.95;1.42;;;;;;;26.47;30.78;100319.56;4464140;32;33964;-76
2023/09/04 11:25:24;;;;;;;2.62;1.15;;;;;;;26.64;30.32;100326.41;4464494;32;33481;-74
2023/09/04 11:27:52;;;;;;;3.65;1.90;;;;;;;26.48;30.08;100322.16;4463544;32;34193;-75
2023/09/04 11:30:20;;;;;;;3.72;1.65;;;;;;;26.38;29.48;100327.09;4463598;32;33744;-77
2023/09/04 11:32:47;;;;;;;2.65;1.48;;;;;;;26.72;29.91;100330.88;4464417;32;35161;-76
2023/09/04 11:35:15;;;;;;;3.25;1.75;;;;;;;26.62;30.33;100331.28;4465423;32;33685;-75